Terral, Oklahoma
Current Conditions -  °F | °C
As of 4:35 AM on Saturday 01 Nov 2014 (Local Time) from KCWC Reporting Station
Clear Clear  
Wind Chill: 37°   Ceiling: Unl
Heat Index: 37°   Visibility: 10mi
Dew Point: 27°   Wind: 3mph
Humidity: 68%   Direction: 80°E
Pressure: 30.4"   Gusts: NA
Location:  33.9°N, 97.94°W
Report Text: KCWC 010935Z AUTO 08003KT 10SM CLR 03/M03 A3040 RMK AO2 T00281026
Loading
Personal Weather Stations






























Interactive Weather Map
Tropical Storm Tracking
New forecast layout! Learn more

10-Day Weather Forecast

Advertisements
Track Severe Weather on mobile